CMB501 ETAR-OKKK
Flight info
| Callsign | CMB501 |
|---|---|
| Flight time | 4h 55m |
| Altitude | 31000 |
| Route | BADLI Y163 PABLA Z721 UTABA DCT GEDSO DCT SABAD DCT VRANA/N0483F330 DCT AKIKA DCT TALAS UN130 MES UL609 RDS UL995 VANZA N134 KOMEZ DCT LAKTO L324 GENIV L550 KARIK B411 DEESA Y415 NIMAR L550 NIDAP DCT SOROR |
| Aircraft | B77L/H-SDE1E2E3FGHIJ2J3J4J5M1RWXY/LB1D1 |
Departure
| Time | 2026-04-21 15:35 |
|---|---|
| Airport | Ramstein Air Base (ETAR) |
Arrival
| Time | 2026-04-21 20:30 |
|---|---|
| Airport | Kuwait International Airport (OKKK) |
| Time | Latitude | Longitude | Altitude | Speed | Heading |
|---|---|---|---|---|---|
| 2026-04-21 14:45 | 49.44434 | 7.61498 | 796 ft | 0 kts | 154° |
| 2026-04-21 15:25 | 49.44433 | 7.61499 | 795 ft | 1 kts | 154° |
| 2026-04-21 15:25 | 49.44414 | 7.61513 | 795 ft | 6 kts | 154° |
| 2026-04-21 15:25 | 49.44365 | 7.61549 | 795 ft | 10 kts | 154° |
| 2026-04-21 15:26 | 49.44288 | 7.61603 | 795 ft | 14 kts | 163° |
| 2026-04-21 15:26 | 49.44184 | 7.61629 | 795 ft | 15 kts | 174° |
| 2026-04-21 15:26 | 49.44084 | 7.61644 | 795 ft | 14 kts | 176° |
| 2026-04-21 15:26 | 49.43989 | 7.61632 | 795 ft | 13 kts | 175° |
| 2026-04-21 15:27 | 49.43895 | 7.61654 | 795 ft | 15 kts | 174° |
| 2026-04-21 15:27 | 49.43776 | 7.61664 | 795 ft | 19 kts | 172° |
| 2026-04-21 15:27 | 49.43657 | 7.61682 | 795 ft | 13 kts | 175° |
| 2026-04-21 15:27 | 49.43597 | 7.61662 | 795 ft | 8 kts | 231° |
| 2026-04-21 15:28 | 49.43579 | 7.61571 | 795 ft | 12 kts | 261° |
| 2026-04-21 15:28 | 49.43565 | 7.61427 | 795 ft | 15 kts | 261° |
| 2026-04-21 15:28 | 49.43549 | 7.61262 | 795 ft | 16 kts | 261° |
| 2026-04-21 15:28 | 49.43531 | 7.61087 | 795 ft | 17 kts | 261° |
| 2026-04-21 15:29 | 49.43514 | 7.60906 | 795 ft | 18 kts | 262° |
| 2026-04-21 15:29 | 49.43498 | 7.60715 | 795 ft | 18 kts | 262° |
| 2026-04-21 15:29 | 49.43481 | 7.60519 | 795 ft | 19 kts | 262° |
| 2026-04-21 15:29 | 49.43464 | 7.60318 | 795 ft | 19 kts | 263° |
| 2026-04-21 15:30 | 49.43448 | 7.60123 | 795 ft | 19 kts | 262° |
| 2026-04-21 15:30 | 49.43429 | 7.59922 | 795 ft | 19 kts | 262° |
| 2026-04-21 15:30 | 49.43411 | 7.59732 | 795 ft | 18 kts | 262° |
| 2026-04-21 15:30 | 49.43393 | 7.59550 | 795 ft | 17 kts | 262° |
| 2026-04-21 15:31 | 49.43377 | 7.59379 | 795 ft | 16 kts | 262° |
| 2026-04-21 15:31 | 49.43362 | 7.59210 | 795 ft | 16 kts | 263° |
| 2026-04-21 15:31 | 49.43348 | 7.59035 | 795 ft | 17 kts | 263° |
| 2026-04-21 15:31 | 49.43333 | 7.58854 | 795 ft | 17 kts | 263° |
| 2026-04-21 15:32 | 49.43317 | 7.58671 | 795 ft | 17 kts | 261° |
| 2026-04-21 15:32 | 49.43300 | 7.58503 | 795 ft | 10 kts | 261° |
| 2026-04-21 15:32 | 49.43314 | 7.58412 | 795 ft | 9 kts | 325° |
| 2026-04-21 15:32 | 49.43375 | 7.58396 | 795 ft | 9 kts | 359° |
| 2026-04-21 15:33 | 49.43441 | 7.58394 | 795 ft | 11 kts | 359° |
| 2026-04-21 15:33 | 49.43519 | 7.58391 | 795 ft | 11 kts | 359° |
| 2026-04-21 15:33 | 49.43595 | 7.58390 | 795 ft | 9 kts | 5° |
| 2026-04-21 15:33 | 49.43626 | 7.58449 | 795 ft | 0 kts | 85° |
| 2026-04-21 15:34 | 49.43627 | 7.58473 | 795 ft | 11 kts | 85° |
| 2026-04-21 15:34 | 49.43646 | 7.58938 | 795 ft | 78 kts | 86° |
| 2026-04-21 15:34 | 49.43695 | 7.60113 | 796 ft | 141 kts | 86° |
| 2026-04-21 15:34 | 49.43775 | 7.61866 | 936 ft | 177 kts | 85° |
| 2026-04-21 15:35 | 49.43875 | 7.63739 | 1653 ft | 180 kts | 84° |
| 2026-04-21 15:35 | 49.43997 | 7.65722 | 2175 ft | 194 kts | 82° |
| 2026-04-21 15:35 | 49.44244 | 7.67752 | 2775 ft | 192 kts | 69° |
| 2026-04-21 15:35 | 49.45073 | 7.69319 | 3349 ft | 195 kts | 38° |
| 2026-04-21 15:36 | 49.46356 | 7.70166 | 3783 ft | 207 kts | 24° |
| 2026-04-21 15:36 | 49.47693 | 7.71137 | 4077 ft | 221 kts | 40° |
| 2026-04-21 15:36 | 49.48753 | 7.72914 | 4441 ft | 231 kts | 53° |
| 2026-04-21 15:36 | 49.49685 | 7.75016 | 4880 ft | 244 kts | 58° |
| 2026-04-21 15:37 | 49.50565 | 7.77300 | 5439 ft | 251 kts | 60° |
| 2026-04-21 15:37 | 49.51425 | 7.79658 | 6080 ft | 255 kts | 61° |
| 2026-04-21 15:37 | 49.52291 | 7.82039 | 6792 ft | 255 kts | 61° |
| 2026-04-21 15:37 | 49.53180 | 7.84423 | 7473 ft | 257 kts | 60° |
| 2026-04-21 15:38 | 49.54089 | 7.86817 | 8071 ft | 261 kts | 60° |
| 2026-04-21 15:38 | 49.54828 | 7.89378 | 8616 ft | 264 kts | 78° |
| 2026-04-21 15:38 | 49.54770 | 7.92195 | 9190 ft | 270 kts | 103° |
| 2026-04-21 15:38 | 49.53857 | 7.94737 | 9739 ft | 277 kts | 128° |
| 2026-04-21 15:39 | 49.52400 | 7.96680 | 10364 ft | 280 kts | 140° |
| 2026-04-21 15:39 | 49.50777 | 7.98375 | 10769 ft | 291 kts | 146° |
| 2026-04-21 15:39 | 49.48985 | 7.99894 | 11280 ft | 297 kts | 149° |
| 2026-04-21 15:39 | 49.47106 | 8.01363 | 11876 ft | 301 kts | 151° |
| 2026-04-21 15:40 | 49.45229 | 8.02842 | 12417 ft | 308 kts | 148° |
| 2026-04-21 15:40 | 49.43363 | 8.04630 | 12736 ft | 324 kts | 144° |
| 2026-04-21 15:40 | 49.41482 | 8.06610 | 13010 ft | 342 kts | 143° |
| 2026-04-21 15:40 | 49.39454 | 8.08788 | 13302 ft | 359 kts | 143° |
| 2026-04-21 15:41 | 49.37379 | 8.10975 | 13697 ft | 373 kts | 144° |
| 2026-04-21 15:41 | 49.35175 | 8.13259 | 14227 ft | 382 kts | 144° |
| 2026-04-21 15:41 | 49.32951 | 8.15557 | 14836 ft | 388 kts | 144° |
| 2026-04-21 15:41 | 49.30723 | 8.17857 | 15473 ft | 394 kts | 145° |
| 2026-04-21 15:42 | 49.28446 | 8.20222 | 16117 ft | 398 kts | 144° |
| 2026-04-21 15:42 | 49.26179 | 8.22708 | 16757 ft | 402 kts | 142° |
| 2026-04-21 15:42 | 49.23924 | 8.25278 | 17371 ft | 407 kts | 142° |
| 2026-04-21 15:42 | 49.21638 | 8.27872 | 17994 ft | 411 kts | 142° |
| 2026-04-21 15:43 | 49.19318 | 8.30461 | 18586 ft | 416 kts | 143° |
| 2026-04-21 15:43 | 49.16959 | 8.33071 | 19146 ft | 421 kts | 143° |
| 2026-04-21 15:43 | 49.14581 | 8.35694 | 19725 ft | 424 kts | 143° |
| 2026-04-21 15:43 | 49.12169 | 8.38353 | 20255 ft | 429 kts | 143° |
| 2026-04-21 15:44 | 49.09700 | 8.40948 | 20751 ft | 433 kts | 149° |
| 2026-04-21 15:44 | 49.06903 | 8.42684 | 21212 ft | 438 kts | 166° |
| 2026-04-21 15:44 | 49.03863 | 8.43181 | 21705 ft | 442 kts | 181° |
| 2026-04-21 15:44 | 49.00798 | 8.42794 | 22241 ft | 444 kts | 188° |
| 2026-04-21 15:45 | 48.97751 | 8.41964 | 22778 ft | 446 kts | 193° |
| 2026-04-21 15:45 | 48.94723 | 8.40866 | 23264 ft | 450 kts | 195° |
| 2026-04-21 15:45 | 48.91676 | 8.39677 | 23764 ft | 453 kts | 195° |
| 2026-04-21 15:45 | 48.88597 | 8.38552 | 24257 ft | 457 kts | 195° |
| 2026-04-21 15:46 | 48.85456 | 8.37679 | 24657 ft | 463 kts | 186° |
| 2026-04-21 15:46 | 48.82218 | 8.37986 | 25045 ft | 472 kts | 170° |
| 2026-04-21 15:46 | 48.79104 | 8.39656 | 25425 ft | 480 kts | 154° |
| 2026-04-21 15:46 | 48.76354 | 8.42546 | 25850 ft | 485 kts | 139° |
| 2026-04-21 15:47 | 48.73956 | 8.46160 | 26240 ft | 489 kts | 133° |
| 2026-04-21 15:47 | 48.71728 | 8.50088 | 26620 ft | 494 kts | 129° |
| 2026-04-21 15:47 | 48.69629 | 8.54227 | 26999 ft | 498 kts | 126° |
| 2026-04-21 15:47 | 48.67601 | 8.58524 | 27402 ft | 503 kts | 125° |
| 2026-04-21 15:48 | 48.65604 | 8.62867 | 27872 ft | 505 kts | 124° |
| 2026-04-21 15:48 | 48.63580 | 8.67229 | 28272 ft | 509 kts | 125° |
| 2026-04-21 15:48 | 48.61504 | 8.71595 | 28628 ft | 513 kts | 126° |
| 2026-04-21 15:48 | 48.59402 | 8.75977 | 28983 ft | 517 kts | 126° |
| 2026-04-21 15:49 | 48.57295 | 8.80403 | 29426 ft | 519 kts | 125° |
| 2026-04-21 15:49 | 48.55206 | 8.84853 | 29808 ft | 522 kts | 126° |
| 2026-04-21 15:49 | 48.53081 | 8.89327 | 30127 ft | 526 kts | 126° |
| 2026-04-21 15:49 | 48.50945 | 8.93789 | 30594 ft | 525 kts | 126° |
| 2026-04-21 15:50 | 48.48804 | 8.98257 | 31015 ft | 525 kts | 126° |
| 2026-04-21 15:50 | 48.46645 | 9.02731 | 31136 ft | 531 kts | 126° |
| 2026-04-21 15:50 | 48.42308 | 9.11766 | 31172 ft | 532 kts | 126° |
| 2026-04-21 15:51 | 48.37976 | 9.20727 | 31162 ft | 527 kts | 127° |
| 2026-04-21 15:51 | 48.33620 | 9.29617 | 31161 ft | 529 kts | 127° |
| 2026-04-21 15:52 | 48.29250 | 9.38530 | 31188 ft | 528 kts | 127° |
| 2026-04-21 15:52 | 48.24877 | 9.47434 | 31148 ft | 531 kts | 127° |
| 2026-04-21 15:53 | 48.20610 | 9.56469 | 31144 ft | 530 kts | 125° |
| 2026-04-21 15:53 | 48.16377 | 9.65520 | 31143 ft | 531 kts | 125° |
| 2026-04-21 15:54 | 48.12814 | 9.73079 | 31140 ft | 531 kts | 126° |
| 2026-04-21 15:54 | 48.08531 | 9.82086 | 31129 ft | 532 kts | 126° |
| 2026-04-21 15:55 | 48.04244 | 9.91107 | 31145 ft | 532 kts | 125° |
| 2026-04-21 15:55 | 48.00044 | 10.00112 | 31130 ft | 531 kts | 126° |
| 2026-04-21 15:56 | 47.95778 | 10.09113 | 31151 ft | 532 kts | 126° |
| 2026-04-21 15:56 | 47.91479 | 10.18106 | 31135 ft | 532 kts | 126° |
| 2026-04-21 15:57 | 47.87184 | 10.27086 | 31138 ft | 533 kts | 126° |
| 2026-04-21 15:57 | 47.82867 | 10.36064 | 31139 ft | 533 kts | 126° |
| 2026-04-21 15:58 | 47.78533 | 10.45023 | 31117 ft | 534 kts | 126° |
| 2026-04-21 15:58 | 47.74188 | 10.53973 | 31126 ft | 533 kts | 127° |
| 2026-04-21 15:59 | 47.69844 | 10.62914 | 31126 ft | 535 kts | 127° |
| 2026-04-21 15:59 | 47.65497 | 10.71853 | 31120 ft | 534 kts | 126° |
| 2026-04-21 16:00 | 47.61132 | 10.80770 | 31103 ft | 534 kts | 127° |
| 2026-04-21 16:00 | 47.56759 | 10.89680 | 31102 ft | 535 kts | 127° |
| 2026-04-21 16:01 | 47.52379 | 10.98572 | 31098 ft | 535 kts | 127° |
| 2026-04-21 16:01 | 47.47993 | 11.07452 | 31091 ft | 534 kts | 127° |
| 2026-04-21 16:02 | 47.43606 | 11.16304 | 31087 ft | 533 kts | 127° |
| 2026-04-21 16:02 | 47.39217 | 11.25132 | 31084 ft | 533 kts | 127° |
| 2026-04-21 16:03 | 47.34825 | 11.33939 | 31082 ft | 533 kts | 127° |
| 2026-04-21 16:03 | 47.30424 | 11.42736 | 31083 ft | 533 kts | 127° |
| 2026-04-21 16:04 | 47.26022 | 11.51539 | 31081 ft | 533 kts | 127° |
| 2026-04-21 16:04 | 47.21628 | 11.60341 | 31072 ft | 534 kts | 127° |
| 2026-04-21 16:05 | 47.17185 | 11.69095 | 31062 ft | 535 kts | 128° |
| 2026-04-21 16:05 | 47.12729 | 11.77851 | 31048 ft | 535 kts | 128° |
| 2026-04-21 16:06 | 47.08266 | 11.86612 | 31042 ft | 537 kts | 128° |
| 2026-04-21 16:06 | 47.03777 | 11.95373 | 31037 ft | 538 kts | 128° |
| 2026-04-21 16:07 | 46.99257 | 12.04133 | 31024 ft | 539 kts | 128° |
| 2026-04-21 16:07 | 46.94723 | 12.12888 | 31014 ft | 540 kts | 128° |
| 2026-04-21 16:08 | 46.87896 | 12.26021 | 31003 ft | 542 kts | 129° |
| 2026-04-21 16:09 | 46.83379 | 12.34832 | 31000 ft | 542 kts | 128° |
| 2026-04-21 16:09 | 46.78868 | 12.43678 | 30995 ft | 543 kts | 125° |
| 2026-04-21 16:10 | 46.75511 | 12.53526 | 31004 ft | 545 kts | 109° |
| 2026-04-21 16:10 | 46.73453 | 12.64171 | 31007 ft | 545 kts | 104° |
| 2026-04-21 16:11 | 46.71524 | 12.74840 | 31012 ft | 544 kts | 103° |
| 2026-04-21 16:11 | 46.69620 | 12.85486 | 31005 ft | 543 kts | 101° |
| 2026-04-21 16:12 | 46.68691 | 12.94524 | 31011 ft | 543 kts | 94° |
| 2026-04-21 16:12 | 46.67775 | 13.07300 | 31002 ft | 541 kts | 94° |
| 2026-04-21 16:13 | 46.66993 | 13.18193 | 31003 ft | 541 kts | 94° |
| 2026-04-21 16:13 | 46.66042 | 13.29070 | 31006 ft | 543 kts | 101° |
| 2026-04-21 16:14 | 46.63449 | 13.39383 | 31010 ft | 545 kts | 118° |
| 2026-04-21 16:14 | 46.59240 | 13.48549 | 31018 ft | 546 kts | 128° |
| 2026-04-21 16:15 | 46.54659 | 13.57363 | 31032 ft | 546 kts | 129° |
| 2026-04-21 16:15 | 46.50093 | 13.66200 | 31035 ft | 548 kts | 129° |
| 2026-04-21 16:16 | 46.45537 | 13.75067 | 31047 ft | 549 kts | 129° |
| 2026-04-21 16:16 | 46.40976 | 13.83954 | 31046 ft | 550 kts | 129° |
| 2026-04-21 16:17 | 46.36354 | 13.92801 | 31048 ft | 551 kts | 132° |
| 2026-04-21 16:17 | 46.31021 | 14.00736 | 31049 ft | 549 kts | 143° |
| 2026-04-21 16:18 | 46.25046 | 14.07527 | 31047 ft | 544 kts | 148° |
| 2026-04-21 16:18 | 46.18911 | 14.13896 | 31046 ft | 543 kts | 150° |
| 2026-04-21 16:19 | 46.12735 | 14.20169 | 31045 ft | 543 kts | 150° |
| 2026-04-21 16:19 | 46.06573 | 14.26432 | 31046 ft | 543 kts | 150° |
| 2026-04-21 16:20 | 46.00401 | 14.32692 | 31042 ft | 542 kts | 150° |
| 2026-04-21 16:20 | 45.94231 | 14.38934 | 31043 ft | 542 kts | 150° |
| 2026-04-21 16:21 | 45.88058 | 14.45164 | 31037 ft | 543 kts | 150° |
| 2026-04-21 16:21 | 45.81878 | 14.51384 | 31041 ft | 542 kts | 150° |
| 2026-04-21 16:22 | 45.75706 | 14.57581 | 31038 ft | 542 kts | 150° |
| 2026-04-21 16:22 | 45.69552 | 14.63803 | 31041 ft | 541 kts | 149° |
| 2026-04-21 16:23 | 45.63397 | 14.69999 | 31036 ft | 541 kts | 150° |
| 2026-04-21 16:23 | 45.57227 | 14.76143 | 31029 ft | 540 kts | 150° |
| 2026-04-21 16:24 | 45.51069 | 14.82274 | 31025 ft | 540 kts | 149° |
| 2026-04-21 16:24 | 45.45310 | 14.89152 | 31020 ft | 542 kts | 140° |
| 2026-04-21 16:25 | 45.40078 | 14.96925 | 31021 ft | 545 kts | 135° |
| 2026-04-21 16:25 | 45.35128 | 15.05096 | 31020 ft | 546 kts | 133° |
| 2026-04-21 16:26 | 45.30174 | 15.13275 | 31023 ft | 546 kts | 134° |
| 2026-04-21 16:26 | 45.25169 | 15.21377 | 31024 ft | 545 kts | 134° |
| 2026-04-21 16:27 | 45.20192 | 15.29484 | 31020 ft | 545 kts | 134° |
| 2026-04-21 16:27 | 45.15211 | 15.37573 | 31018 ft | 544 kts | 134° |
| 2026-04-21 16:28 | 45.10210 | 15.45619 | 31016 ft | 544 kts | 134° |
| 2026-04-21 16:28 | 45.05204 | 15.53633 | 31016 ft | 543 kts | 135° |
| 2026-04-21 16:29 | 45.01006 | 15.60334 | 31043 ft | 543 kts | 135° |
| 2026-04-21 16:29 | 44.95175 | 15.69616 | 31037 ft | 544 kts | 135° |
| 2026-04-21 16:30 | 44.90148 | 15.77588 | 31030 ft | 543 kts | 135° |
| 2026-04-21 16:30 | 44.85121 | 15.85540 | 31024 ft | 543 kts | 135° |
| 2026-04-21 16:31 | 44.80089 | 15.93475 | 31017 ft | 542 kts | 135° |
| 2026-04-21 16:31 | 44.75066 | 16.01376 | 31013 ft | 542 kts | 135° |
| 2026-04-21 16:32 | 44.70036 | 16.09266 | 31005 ft | 541 kts | 135° |
| 2026-04-21 16:32 | 44.65008 | 16.17128 | 31004 ft | 541 kts | 135° |
| 2026-04-21 16:33 | 44.59979 | 16.24978 | 31004 ft | 541 kts | 135° |
| 2026-04-21 16:33 | 44.54938 | 16.32814 | 31009 ft | 541 kts | 135° |
| 2026-04-21 16:34 | 44.49897 | 16.40631 | 31023 ft | 541 kts | 135° |
| 2026-04-21 16:34 | 44.45664 | 16.47179 | 31021 ft | 541 kts | 135° |
| 2026-04-21 16:35 | 44.40610 | 16.54977 | 31017 ft | 541 kts | 135° |
| 2026-04-21 16:35 | 44.35555 | 16.62756 | 31014 ft | 541 kts | 135° |
| 2026-04-21 16:36 | 44.30493 | 16.70524 | 31012 ft | 540 kts | 136° |
| 2026-04-21 16:36 | 44.25427 | 16.78276 | 31007 ft | 540 kts | 136° |
| 2026-04-21 16:37 | 44.20362 | 16.86011 | 31008 ft | 540 kts | 136° |
| 2026-04-21 16:37 | 44.15288 | 16.93730 | 31000 ft | 540 kts | 136° |
| 2026-04-21 16:38 | 44.10211 | 17.01435 | 30996 ft | 540 kts | 136° |
| 2026-04-21 16:38 | 44.05122 | 17.09137 | 30979 ft | 540 kts | 136° |
| 2026-04-21 16:39 | 44.00039 | 17.16811 | 30975 ft | 540 kts | 136° |
| 2026-04-21 16:39 | 43.94959 | 17.24500 | 30967 ft | 540 kts | 135° |
| 2026-04-21 16:40 | 43.89867 | 17.32171 | 30954 ft | 540 kts | 136° |
| 2026-04-21 16:40 | 43.84760 | 17.39790 | 30961 ft | 540 kts | 136° |
| 2026-04-21 16:41 | 43.79643 | 17.47406 | 30956 ft | 540 kts | 136° |
| 2026-04-21 16:41 | 43.74551 | 17.55042 | 30954 ft | 540 kts | 134° |
| 2026-04-21 16:42 | 43.69793 | 17.63093 | 30950 ft | 541 kts | 130° |
| 2026-04-21 16:42 | 43.65199 | 17.71339 | 30947 ft | 542 kts | 130° |
| 2026-04-21 16:43 | 43.60535 | 17.79531 | 30942 ft | 542 kts | 131° |
| 2026-04-21 16:43 | 43.55844 | 17.87659 | 30937 ft | 542 kts | 131° |
| 2026-04-21 16:44 | 43.51168 | 17.95805 | 30933 ft | 542 kts | 130° |
| 2026-04-21 16:44 | 43.46497 | 18.03959 | 30929 ft | 541 kts | 131° |
| 2026-04-21 16:45 | 43.41812 | 18.12056 | 30929 ft | 541 kts | 131° |
| 2026-04-21 16:45 | 43.37119 | 18.20128 | 30930 ft | 540 kts | 131° |
| 2026-04-21 16:46 | 43.32424 | 18.28177 | 30934 ft | 540 kts | 131° |
| 2026-04-21 16:46 | 43.27723 | 18.36210 | 30938 ft | 539 kts | 131° |
| 2026-04-21 16:47 | 43.23021 | 18.44225 | 30926 ft | 539 kts | 131° |
| 2026-04-21 16:47 | 43.18323 | 18.52210 | 30958 ft | 538 kts | 131° |
| 2026-04-21 16:48 | 43.13621 | 18.60180 | 30963 ft | 538 kts | 131° |
| 2026-04-21 16:48 | 43.08911 | 18.68144 | 30959 ft | 537 kts | 131° |
| 2026-04-21 16:49 | 43.04208 | 18.76073 | 30964 ft | 537 kts | 131° |
| 2026-04-21 16:49 | 42.99499 | 18.83993 | 30963 ft | 537 kts | 131° |
| 2026-04-21 16:50 | 42.94785 | 18.91897 | 30961 ft | 537 kts | 131° |
| 2026-04-21 16:50 | 42.90066 | 18.99789 | 30960 ft | 537 kts | 132° |
| 2026-04-21 16:51 | 42.85344 | 19.07665 | 30958 ft | 536 kts | 132° |
| 2026-04-21 16:51 | 42.80628 | 19.15512 | 30959 ft | 535 kts | 132° |
| 2026-04-21 16:52 | 42.75936 | 19.23297 | 30959 ft | 535 kts | 132° |
| 2026-04-21 16:52 | 42.71204 | 19.31186 | 30968 ft | 535 kts | 131° |
| 2026-04-21 16:53 | 42.66513 | 19.38940 | 30966 ft | 534 kts | 132° |
| 2026-04-21 16:53 | 42.61777 | 19.46705 | 30967 ft | 533 kts | 132° |
| 2026-04-21 16:54 | 42.57046 | 19.54449 | 30969 ft | 533 kts | 132° |
| 2026-04-21 16:54 | 42.52294 | 19.62229 | 30966 ft | 532 kts | 132° |
| 2026-04-21 16:55 | 42.47585 | 19.69959 | 30966 ft | 531 kts | 132° |
| 2026-04-21 16:55 | 42.42872 | 19.77661 | 30969 ft | 531 kts | 132° |
| 2026-04-21 16:56 | 42.38158 | 19.85341 | 30973 ft | 530 kts | 132° |
| 2026-04-21 16:56 | 42.33478 | 19.92946 | 30974 ft | 530 kts | 132° |
| 2026-04-21 16:57 | 42.28784 | 20.00624 | 30977 ft | 529 kts | 131° |
| 2026-04-21 16:57 | 42.24077 | 20.08354 | 30978 ft | 529 kts | 132° |
| 2026-04-21 16:58 | 42.19375 | 20.16002 | 30981 ft | 529 kts | 132° |
| 2026-04-21 16:58 | 42.14666 | 20.23624 | 30982 ft | 529 kts | 132° |
| 2026-04-21 16:59 | 42.09950 | 20.31238 | 30983 ft | 529 kts | 132° |
| 2026-04-21 16:59 | 42.05218 | 20.38849 | 31075 ft | 533 kts | 132° |
| 2026-04-21 16:59 | 42.02833 | 20.42680 | 31469 ft | 533 kts | 132° |
| 2026-04-21 17:00 | 42.00459 | 20.46488 | 32040 ft | 529 kts | 132° |
| 2026-04-21 17:00 | 41.98097 | 20.50270 | 32580 ft | 526 kts | 132° |
| 2026-04-21 17:00 | 41.96546 | 20.52752 | 32863 ft | 526 kts | 132° |
| 2026-04-21 17:00 | 41.93395 | 20.57788 | 32998 ft | 526 kts | 132° |
| 2026-04-21 17:01 | 41.91041 | 20.61545 | 32982 ft | 526 kts | 132° |
| 2026-04-21 17:01 | 41.86334 | 20.69043 | 32982 ft | 525 kts | 133° |
| 2026-04-21 17:02 | 41.81662 | 20.76466 | 32980 ft | 524 kts | 133° |
| 2026-04-21 17:02 | 41.76953 | 20.83929 | 32987 ft | 524 kts | 133° |
| 2026-04-21 17:03 | 41.72241 | 20.91379 | 32988 ft | 524 kts | 133° |
| 2026-04-21 17:03 | 41.67527 | 20.98814 | 32988 ft | 524 kts | 133° |
| 2026-04-21 17:04 | 41.62815 | 21.06227 | 32989 ft | 523 kts | 133° |
| 2026-04-21 17:04 | 41.58094 | 21.13636 | 32987 ft | 523 kts | 133° |
| 2026-04-21 17:05 | 41.53372 | 21.21027 | 32994 ft | 523 kts | 133° |
| 2026-04-21 17:05 | 41.48650 | 21.28402 | 32994 ft | 523 kts | 133° |
| 2026-04-21 17:06 | 41.43921 | 21.35769 | 32992 ft | 523 kts | 133° |
| 2026-04-21 17:06 | 41.39193 | 21.43121 | 32992 ft | 522 kts | 134° |
| 2026-04-21 17:07 | 41.35255 | 21.49225 | 32990 ft | 522 kts | 134° |
| 2026-04-21 17:07 | 41.29719 | 21.57787 | 32988 ft | 522 kts | 134° |
| 2026-04-21 17:08 | 41.24996 | 21.65135 | 32985 ft | 522 kts | 134° |
| 2026-04-21 17:08 | 41.20242 | 21.72445 | 32980 ft | 522 kts | 134° |
| 2026-04-21 17:09 | 41.13100 | 21.83367 | 32976 ft | 522 kts | 134° |
| 2026-04-21 17:09 | 41.08280 | 21.90560 | 32969 ft | 521 kts | 135° |
| 2026-04-21 17:10 | 41.03385 | 21.97641 | 32962 ft | 521 kts | 135° |
| 2026-04-21 17:10 | 40.98522 | 22.04671 | 32959 ft | 521 kts | 136° |
| 2026-04-21 17:11 | 40.93628 | 22.11734 | 32955 ft | 521 kts | 136° |
| 2026-04-21 17:11 | 40.88733 | 22.18786 | 32953 ft | 521 kts | 135° |
| 2026-04-21 17:12 | 40.83829 | 22.25833 | 32949 ft | 521 kts | 136° |
| 2026-04-21 17:12 | 40.78919 | 22.32875 | 32947 ft | 521 kts | 136° |
| 2026-04-21 17:13 | 40.74005 | 22.39906 | 32944 ft | 521 kts | 136° |
| 2026-04-21 17:13 | 40.69087 | 22.46928 | 32943 ft | 521 kts | 136° |
| 2026-04-21 17:14 | 40.64165 | 22.53935 | 32938 ft | 521 kts | 136° |
| 2026-04-21 17:14 | 40.59234 | 22.60940 | 32937 ft | 521 kts | 136° |
| 2026-04-21 17:15 | 40.54301 | 22.67933 | 32935 ft | 522 kts | 136° |
| 2026-04-21 17:15 | 40.49364 | 22.74914 | 32935 ft | 522 kts | 136° |
| 2026-04-21 17:16 | 40.45223 | 22.80761 | 32934 ft | 522 kts | 136° |
| 2026-04-21 17:16 | 40.40273 | 22.87729 | 32935 ft | 522 kts | 136° |
| 2026-04-21 17:17 | 40.35326 | 22.94678 | 32934 ft | 522 kts | 136° |
| 2026-04-21 17:17 | 40.30361 | 23.01637 | 32931 ft | 523 kts | 136° |
| 2026-04-21 17:18 | 40.25395 | 23.08582 | 32927 ft | 523 kts | 136° |
| 2026-04-21 17:18 | 40.20417 | 23.15526 | 32923 ft | 523 kts | 136° |
| 2026-04-21 17:19 | 40.15472 | 23.22409 | 32917 ft | 523 kts | 136° |
| 2026-04-21 17:19 | 40.10480 | 23.29342 | 32912 ft | 524 kts | 136° |
| 2026-04-21 17:20 | 40.05484 | 23.36265 | 32906 ft | 524 kts | 136° |
| 2026-04-21 17:20 | 40.00476 | 23.43190 | 32900 ft | 524 kts | 136° |
| 2026-04-21 17:21 | 39.95466 | 23.50098 | 32897 ft | 525 kts | 136° |
| 2026-04-21 17:21 | 39.90451 | 23.57000 | 32906 ft | 525 kts | 136° |
| 2026-04-21 17:22 | 39.85422 | 23.63904 | 32904 ft | 525 kts | 136° |
| 2026-04-21 17:22 | 39.80398 | 23.70786 | 32900 ft | 525 kts | 136° |
| 2026-04-21 17:23 | 39.75368 | 23.77662 | 32898 ft | 525 kts | 136° |
| 2026-04-21 17:23 | 39.70332 | 23.84529 | 32895 ft | 525 kts | 136° |
| 2026-04-21 17:24 | 39.65297 | 23.91380 | 32895 ft | 525 kts | 136° |
| 2026-04-21 17:24 | 39.60253 | 23.98227 | 32892 ft | 525 kts | 136° |
| 2026-04-21 17:25 | 39.55207 | 24.05062 | 32891 ft | 525 kts | 136° |
| 2026-04-21 17:25 | 39.50150 | 24.11897 | 32892 ft | 525 kts | 136° |
| 2026-04-21 17:26 | 39.45096 | 24.18712 | 32891 ft | 525 kts | 137° |
| 2026-04-21 17:26 | 39.40043 | 24.25510 | 32893 ft | 524 kts | 137° |
| 2026-04-21 17:27 | 39.34982 | 24.32304 | 32893 ft | 524 kts | 137° |
| 2026-04-21 17:27 | 39.29927 | 24.39075 | 32894 ft | 524 kts | 137° |
| 2026-04-21 17:28 | 39.24902 | 24.45791 | 32895 ft | 523 kts | 136° |
| 2026-04-21 17:28 | 39.19842 | 24.52540 | 32889 ft | 523 kts | 137° |
| 2026-04-21 17:29 | 39.14780 | 24.59275 | 32901 ft | 523 kts | 137° |
| 2026-04-21 17:29 | 39.09713 | 24.66001 | 32903 ft | 523 kts | 137° |
| 2026-04-21 17:30 | 39.04638 | 24.72724 | 32905 ft | 523 kts | 137° |
| 2026-04-21 17:30 | 38.99566 | 24.79431 | 32907 ft | 523 kts | 137° |
| 2026-04-21 17:31 | 38.94484 | 24.86132 | 32910 ft | 523 kts | 137° |
| 2026-04-21 17:31 | 38.89403 | 24.92820 | 32912 ft | 523 kts | 137° |
| 2026-04-21 17:32 | 38.84313 | 24.99507 | 32915 ft | 523 kts | 137° |
| 2026-04-21 17:32 | 38.79225 | 25.06173 | 32919 ft | 523 kts | 137° |
| 2026-04-21 17:33 | 38.74127 | 25.12838 | 32920 ft | 524 kts | 137° |
| 2026-04-21 17:33 | 38.69025 | 25.19496 | 32925 ft | 524 kts | 137° |
| 2026-04-21 17:34 | 38.63921 | 25.26139 | 32933 ft | 523 kts | 137° |
| 2026-04-21 17:34 | 38.58808 | 25.32781 | 32935 ft | 524 kts | 137° |
| 2026-04-21 17:35 | 38.53697 | 25.39407 | 32933 ft | 524 kts | 137° |
| 2026-04-21 17:35 | 38.48573 | 25.46036 | 32932 ft | 524 kts | 137° |
| 2026-04-21 17:36 | 38.43449 | 25.52649 | 32933 ft | 524 kts | 137° |
| 2026-04-21 17:36 | 38.38322 | 25.59253 | 32933 ft | 524 kts | 137° |
| 2026-04-21 17:37 | 38.33190 | 25.65849 | 32934 ft | 524 kts | 137° |
| 2026-04-21 17:37 | 38.28053 | 25.72439 | 32936 ft | 524 kts | 137° |
| 2026-04-21 17:38 | 38.22907 | 25.79025 | 32935 ft | 525 kts | 137° |
| 2026-04-21 17:38 | 38.17757 | 25.85602 | 32936 ft | 525 kts | 137° |
| 2026-04-21 17:39 | 38.12602 | 25.92173 | 32936 ft | 525 kts | 137° |
| 2026-04-21 17:39 | 38.07442 | 25.98736 | 32937 ft | 525 kts | 137° |
| 2026-04-21 17:40 | 38.02276 | 26.05292 | 32937 ft | 525 kts | 137° |
| 2026-04-21 17:40 | 37.97149 | 26.11787 | 32938 ft | 525 kts | 137° |
| 2026-04-21 17:41 | 37.91945 | 26.18364 | 32944 ft | 525 kts | 137° |
| 2026-04-21 17:41 | 37.86805 | 26.24848 | 32946 ft | 525 kts | 137° |
| 2026-04-21 17:42 | 37.81629 | 26.31364 | 32950 ft | 525 kts | 137° |
| 2026-04-21 17:42 | 37.76451 | 26.37870 | 32952 ft | 524 kts | 137° |
| 2026-04-21 17:43 | 37.71279 | 26.44357 | 32955 ft | 524 kts | 137° |
| 2026-04-21 17:43 | 37.66108 | 26.50829 | 32957 ft | 524 kts | 137° |
| 2026-04-21 17:44 | 37.60952 | 26.57324 | 32959 ft | 524 kts | 136° |
| 2026-04-21 17:44 | 37.55846 | 26.63878 | 32960 ft | 523 kts | 137° |
| 2026-04-21 17:45 | 37.50677 | 26.70328 | 32962 ft | 523 kts | 138° |
| 2026-04-21 17:45 | 37.45516 | 26.76773 | 32961 ft | 523 kts | 137° |
| 2026-04-21 17:46 | 37.40366 | 26.83227 | 32963 ft | 523 kts | 137° |
| 2026-04-21 17:46 | 37.35163 | 26.89605 | 32962 ft | 522 kts | 139° |
| 2026-04-21 17:47 | 37.29867 | 26.95829 | 32961 ft | 521 kts | 139° |
| 2026-04-21 17:47 | 37.24584 | 27.02071 | 32960 ft | 521 kts | 139° |
| 2026-04-21 17:48 | 37.19313 | 27.08312 | 32972 ft | 521 kts | 139° |
| 2026-04-21 17:48 | 37.14041 | 27.14555 | 32973 ft | 522 kts | 139° |
| 2026-04-21 17:49 | 37.08791 | 27.20834 | 32973 ft | 522 kts | 139° |
| 2026-04-21 17:49 | 37.03524 | 27.27084 | 32972 ft | 522 kts | 139° |
| 2026-04-21 17:50 | 36.98250 | 27.33315 | 32973 ft | 521 kts | 139° |
| 2026-04-21 17:50 | 36.92975 | 27.39530 | 32973 ft | 521 kts | 139° |
| 2026-04-21 17:51 | 36.87695 | 27.45740 | 32973 ft | 521 kts | 139° |
| 2026-04-21 17:51 | 36.82416 | 27.51938 | 32973 ft | 521 kts | 139° |
| 2026-04-21 17:52 | 36.77128 | 27.58128 | 32975 ft | 521 kts | 139° |
| 2026-04-21 17:52 | 36.71841 | 27.64308 | 32976 ft | 521 kts | 139° |
| 2026-04-21 17:53 | 36.66544 | 27.70486 | 32978 ft | 521 kts | 139° |
| 2026-04-21 17:53 | 36.61242 | 27.76659 | 32976 ft | 522 kts | 140° |
| 2026-04-21 17:54 | 36.55945 | 27.82832 | 32974 ft | 522 kts | 139° |
| 2026-04-21 17:54 | 36.50647 | 27.89002 | 32970 ft | 522 kts | 140° |
| 2026-04-21 17:55 | 36.45330 | 27.95140 | 32967 ft | 522 kts | 140° |
| 2026-04-21 17:55 | 36.40004 | 28.01277 | 32966 ft | 522 kts | 140° |
| 2026-04-21 17:56 | 36.34683 | 28.07403 | 32964 ft | 522 kts | 140° |
| 2026-04-21 17:56 | 36.29579 | 28.13829 | 32965 ft | 524 kts | 134° |
| 2026-04-21 17:57 | 36.24748 | 28.20597 | 32968 ft | 524 kts | 134° |
| 2026-04-21 17:57 | 36.19846 | 28.27200 | 32970 ft | 524 kts | 135° |
| 2026-04-21 17:58 | 36.14843 | 28.33847 | 32973 ft | 524 kts | 135° |
| 2026-04-21 17:58 | 36.09913 | 28.40403 | 32975 ft | 524 kts | 135° |
| 2026-04-21 17:59 | 36.04959 | 28.47015 | 32978 ft | 524 kts | 135° |
| 2026-04-21 17:59 | 35.99951 | 28.53640 | 32980 ft | 524 kts | 135° |
| 2026-04-21 18:00 | 35.95005 | 28.60161 | 32982 ft | 524 kts | 135° |
| 2026-04-21 18:00 | 35.90020 | 28.66728 | 32983 ft | 525 kts | 135° |
| 2026-04-21 18:01 | 35.84941 | 28.73179 | 32986 ft | 524 kts | 138° |
| 2026-04-21 18:01 | 35.80491 | 28.78335 | 32989 ft | 524 kts | 140° |
| 2026-04-21 18:02 | 35.75176 | 28.84454 | 33000 ft | 523 kts | 139° |
| 2026-04-21 18:02 | 35.69901 | 28.90607 | 33000 ft | 522 kts | 139° |
| 2026-04-21 18:03 | 35.64635 | 28.96764 | 33003 ft | 523 kts | 139° |
| 2026-04-21 18:03 | 35.59387 | 29.02953 | 33004 ft | 523 kts | 139° |
| 2026-04-21 18:04 | 35.54132 | 29.09128 | 33004 ft | 523 kts | 139° |
| 2026-04-21 18:04 | 35.48864 | 29.15285 | 33005 ft | 523 kts | 139° |
| 2026-04-21 18:05 | 35.43594 | 29.21429 | 33004 ft | 523 kts | 139° |
| 2026-04-21 18:05 | 35.38314 | 29.27572 | 33001 ft | 523 kts | 139° |
| 2026-04-21 18:06 | 35.33030 | 29.33708 | 33001 ft | 524 kts | 139° |
| 2026-04-21 18:06 | 35.27737 | 29.39842 | 33002 ft | 524 kts | 139° |
| 2026-04-21 18:07 | 35.22483 | 29.45920 | 33002 ft | 523 kts | 139° |
| 2026-04-21 18:07 | 35.17209 | 29.52046 | 33004 ft | 523 kts | 139° |
| 2026-04-21 18:08 | 35.11916 | 29.58143 | 33004 ft | 523 kts | 139° |
| 2026-04-21 18:08 | 35.06609 | 29.64235 | 33005 ft | 523 kts | 140° |
| 2026-04-21 18:09 | 35.01304 | 29.70312 | 33005 ft | 523 kts | 140° |
| 2026-04-21 18:09 | 34.96018 | 29.76387 | 33006 ft | 521 kts | 139° |
| 2026-04-21 18:10 | 34.90810 | 29.82517 | 33007 ft | 520 kts | 139° |
| 2026-04-21 18:10 | 34.85582 | 29.88609 | 33007 ft | 520 kts | 139° |
| 2026-04-21 18:11 | 34.80342 | 29.94698 | 33009 ft | 521 kts | 139° |
| 2026-04-21 18:11 | 34.75285 | 30.01005 | 33011 ft | 522 kts | 132° |
| 2026-04-21 18:12 | 34.70913 | 30.08079 | 33009 ft | 524 kts | 126° |
| 2026-04-21 18:12 | 34.66886 | 30.15473 | 33010 ft | 525 kts | 125° |
| 2026-04-21 18:13 | 34.62806 | 30.22833 | 33019 ft | 525 kts | 126° |
| 2026-04-21 18:13 | 34.58658 | 30.30140 | 33020 ft | 525 kts | 126° |
| 2026-04-21 18:14 | 34.52455 | 30.41091 | 33020 ft | 525 kts | 126° |
| 2026-04-21 18:15 | 34.48314 | 30.48373 | 33021 ft | 525 kts | 126° |
| 2026-04-21 18:15 | 34.44157 | 30.55647 | 33021 ft | 525 kts | 126° |
| 2026-04-21 18:16 | 34.40011 | 30.62935 | 33021 ft | 525 kts | 126° |
| 2026-04-21 18:16 | 34.35844 | 30.70193 | 33023 ft | 525 kts | 127° |
| 2026-04-21 18:17 | 34.31666 | 30.77432 | 33022 ft | 525 kts | 127° |
| 2026-04-21 18:17 | 34.27478 | 30.84674 | 33021 ft | 525 kts | 127° |
| 2026-04-21 18:18 | 34.22648 | 30.91212 | 33022 ft | 521 kts | 142° |
| 2026-04-21 18:18 | 34.16746 | 30.96240 | 33023 ft | 518 kts | 152° |
| 2026-04-21 18:19 | 34.10553 | 31.00636 | 33023 ft | 515 kts | 153° |
| 2026-04-21 18:19 | 34.04403 | 31.05070 | 33023 ft | 515 kts | 152° |
| 2026-04-21 18:20 | 33.98285 | 31.09584 | 33024 ft | 516 kts | 152° |
| 2026-04-21 18:20 | 33.92180 | 31.14128 | 33023 ft | 516 kts | 152° |
| 2026-04-21 18:21 | 33.86079 | 31.18684 | 33024 ft | 516 kts | 152° |
| 2026-04-21 18:21 | 33.79969 | 31.23224 | 33024 ft | 516 kts | 152° |
| 2026-04-21 18:22 | 33.73860 | 31.27751 | 33024 ft | 516 kts | 152° |
| 2026-04-21 18:22 | 33.67742 | 31.32276 | 33025 ft | 517 kts | 152° |
| 2026-04-21 18:23 | 33.61619 | 31.36795 | 33024 ft | 516 kts | 152° |
| 2026-04-21 18:23 | 33.55510 | 31.41298 | 33025 ft | 515 kts | 152° |
| 2026-04-21 18:24 | 33.49399 | 31.45793 | 33026 ft | 515 kts | 152° |
| 2026-04-21 18:24 | 33.43281 | 31.50288 | 33025 ft | 516 kts | 153° |
| 2026-04-21 18:25 | 33.37166 | 31.54774 | 33029 ft | 516 kts | 153° |
| 2026-04-21 18:25 | 33.31035 | 31.59259 | 33026 ft | 516 kts | 153° |
| 2026-04-21 18:26 | 33.24916 | 31.63731 | 33027 ft | 516 kts | 153° |
| 2026-04-21 18:26 | 33.18794 | 31.68197 | 33026 ft | 516 kts | 153° |
| 2026-04-21 18:27 | 33.12662 | 31.72664 | 33027 ft | 516 kts | 153° |
| 2026-04-21 18:27 | 33.06537 | 31.77117 | 33027 ft | 516 kts | 153° |
| 2026-04-21 18:28 | 33.00406 | 31.81568 | 33027 ft | 516 kts | 153° |
| 2026-04-21 18:28 | 32.94279 | 31.86010 | 33028 ft | 515 kts | 153° |
| 2026-04-21 18:29 | 32.88159 | 31.90457 | 33028 ft | 516 kts | 153° |
| 2026-04-21 18:29 | 32.82028 | 31.94891 | 33034 ft | 515 kts | 153° |
| 2026-04-21 18:30 | 32.75897 | 31.99304 | 33043 ft | 515 kts | 154° |
| 2026-04-21 18:30 | 32.69763 | 32.03714 | 33044 ft | 515 kts | 154° |
| 2026-04-21 18:31 | 32.63823 | 32.08489 | 33044 ft | 519 kts | 144° |
| 2026-04-21 18:31 | 32.58544 | 32.14396 | 33040 ft | 524 kts | 139° |
| 2026-04-21 18:32 | 32.53542 | 32.20700 | 33041 ft | 526 kts | 136° |
| 2026-04-21 18:32 | 32.48564 | 32.27054 | 33040 ft | 526 kts | 137° |
| 2026-04-21 18:33 | 32.43566 | 32.33386 | 33052 ft | 526 kts | 137° |
| 2026-04-21 18:33 | 32.38571 | 32.39708 | 33053 ft | 526 kts | 137° |
| 2026-04-21 18:34 | 32.33648 | 32.45977 | 33055 ft | 526 kts | 137° |
| 2026-04-21 18:34 | 32.28648 | 32.52299 | 33053 ft | 526 kts | 137° |
| 2026-04-21 18:35 | 32.24491 | 32.57538 | 33054 ft | 526 kts | 137° |
| 2026-04-21 18:35 | 32.18635 | 32.64905 | 33054 ft | 526 kts | 137° |
| 2026-04-21 18:36 | 32.13618 | 32.71199 | 33055 ft | 526 kts | 137° |
| 2026-04-21 18:36 | 32.08600 | 32.77487 | 33055 ft | 526 kts | 137° |
| 2026-04-21 18:37 | 32.03581 | 32.83765 | 33056 ft | 526 kts | 137° |
| 2026-04-21 18:37 | 31.98570 | 32.90059 | 33059 ft | 526 kts | 137° |
| 2026-04-21 18:38 | 31.93531 | 32.96335 | 33060 ft | 528 kts | 138° |
| 2026-04-21 18:38 | 31.88477 | 33.02609 | 33061 ft | 529 kts | 138° |
| 2026-04-21 18:39 | 31.83290 | 33.08701 | 33060 ft | 521 kts | 148° |
| 2026-04-21 18:39 | 31.80234 | 33.10918 | 33060 ft | 514 kts | 161° |
| 2026-04-21 18:39 | 31.76890 | 33.12291 | 33062 ft | 508 kts | 173° |
| 2026-04-21 18:40 | 31.69992 | 33.13009 | 33068 ft | 497 kts | 187° |
| 2026-04-21 18:40 | 31.64242 | 33.12963 | 33067 ft | 490 kts | 186° |
| 2026-04-21 18:41 | 31.56310 | 33.13261 | 33065 ft | 487 kts | 184° |
| 2026-04-21 18:41 | 31.49538 | 33.13631 | 33065 ft | 488 kts | 184° |
| 2026-04-21 18:42 | 31.43897 | 33.13916 | 33066 ft | 488 kts | 184° |
| 2026-04-21 18:42 | 31.37124 | 33.14820 | 33068 ft | 495 kts | 173° |
| 2026-04-21 18:43 | 31.30633 | 33.17733 | 33069 ft | 507 kts | 160° |
| 2026-04-21 18:43 | 31.24403 | 33.21749 | 33067 ft | 514 kts | 156° |
| 2026-04-21 18:44 | 31.18169 | 33.25855 | 33067 ft | 515 kts | 157° |
| 2026-04-21 18:44 | 31.11883 | 33.29855 | 33068 ft | 514 kts | 158° |
| 2026-04-21 18:45 | 31.05590 | 33.33815 | 33069 ft | 513 kts | 158° |
| 2026-04-21 18:45 | 30.99318 | 33.37778 | 33069 ft | 513 kts | 158° |
| 2026-04-21 18:46 | 30.93037 | 33.41724 | 33070 ft | 513 kts | 158° |
| 2026-04-21 18:46 | 30.86749 | 33.45664 | 33072 ft | 513 kts | 158° |
| 2026-04-21 18:47 | 30.80456 | 33.49595 | 33071 ft | 513 kts | 158° |
| 2026-04-21 18:47 | 30.74163 | 33.53519 | 33069 ft | 513 kts | 158° |
| 2026-04-21 18:48 | 30.67879 | 33.57432 | 33067 ft | 513 kts | 158° |
| 2026-04-21 18:48 | 30.61590 | 33.61342 | 33065 ft | 513 kts | 159° |
| 2026-04-21 18:49 | 30.55251 | 33.65278 | 33060 ft | 513 kts | 159° |
| 2026-04-21 18:49 | 30.50018 | 33.68524 | 33057 ft | 513 kts | 159° |
| 2026-04-21 18:50 | 30.42651 | 33.73085 | 33053 ft | 513 kts | 159° |
| 2026-04-21 18:50 | 30.36355 | 33.76977 | 33047 ft | 513 kts | 159° |
| 2026-04-21 18:51 | 30.30063 | 33.80861 | 33043 ft | 513 kts | 159° |
| 2026-04-21 18:51 | 30.23774 | 33.84738 | 33042 ft | 513 kts | 159° |
| 2026-04-21 18:52 | 30.17469 | 33.88619 | 33026 ft | 513 kts | 159° |
| 2026-04-21 18:52 | 30.11169 | 33.92491 | 33019 ft | 513 kts | 159° |
| 2026-04-21 18:53 | 30.04910 | 33.96332 | 33012 ft | 513 kts | 159° |
| 2026-04-21 18:53 | 29.98602 | 34.00198 | 33005 ft | 513 kts | 159° |
| 2026-04-21 18:54 | 29.92294 | 34.04058 | 33000 ft | 513 kts | 159° |
| 2026-04-21 18:54 | 29.85953 | 34.07947 | 32994 ft | 513 kts | 159° |
| 2026-04-21 18:55 | 29.80711 | 34.11150 | 32990 ft | 513 kts | 159° |
| 2026-04-21 18:55 | 29.73375 | 34.15614 | 32985 ft | 513 kts | 159° |
| 2026-04-21 18:56 | 29.67069 | 34.19470 | 32979 ft | 515 kts | 157° |
| 2026-04-21 18:56 | 29.64162 | 34.21929 | 32983 ft | 527 kts | 142° |
| 2026-04-21 18:56 | 29.61822 | 34.25183 | 32982 ft | 532 kts | 127° |
| 2026-04-21 18:56 | 29.60199 | 34.29082 | 32983 ft | 537 kts | 112° |
| 2026-04-21 18:57 | 29.59438 | 34.33233 | 32983 ft | 543 kts | 97° |
| 2026-04-21 18:57 | 29.59530 | 34.37581 | 32986 ft | 547 kts | 83° |
| 2026-04-21 18:57 | 29.60303 | 34.41870 | 33002 ft | 550 kts | 78° |
| 2026-04-21 18:58 | 29.60917 | 34.50659 | 32986 ft | 556 kts | 94° |
| 2026-04-21 18:58 | 29.59414 | 34.59271 | 32982 ft | 549 kts | 117° |
| 2026-04-21 18:58 | 29.57494 | 34.63028 | 32986 ft | 544 kts | 131° |
| 2026-04-21 18:59 | 29.54975 | 34.66233 | 32997 ft | 537 kts | 141° |
| 2026-04-21 18:59 | 29.49233 | 34.71559 | 32994 ft | 526 kts | 148° |
| 2026-04-21 18:59 | 29.46568 | 34.74443 | 32988 ft | 530 kts | 136° |
| 2026-04-21 19:00 | 29.44441 | 34.77920 | 32988 ft | 536 kts | 124° |
| 2026-04-21 19:00 | 29.42961 | 34.81853 | 32982 ft | 541 kts | 110° |
| 2026-04-21 19:00 | 29.42306 | 34.86118 | 32986 ft | 547 kts | 95° |
| 2026-04-21 19:01 | 29.42307 | 34.94898 | 32985 ft | 554 kts | 93° |
| 2026-04-21 19:01 | 29.42930 | 35.03748 | 32988 ft | 560 kts | 79° |
| 2026-04-21 19:02 | 29.44817 | 35.12385 | 32993 ft | 557 kts | 72° |
| 2026-04-21 19:02 | 29.47013 | 35.20903 | 32990 ft | 556 kts | 73° |
| 2026-04-21 19:03 | 29.49010 | 35.29478 | 32992 ft | 556 kts | 74° |
| 2026-04-21 19:03 | 29.50985 | 35.38067 | 32989 ft | 557 kts | 74° |
| 2026-04-21 19:04 | 29.52967 | 35.46648 | 32988 ft | 556 kts | 74° |
| 2026-04-21 19:04 | 29.54997 | 35.55211 | 32986 ft | 555 kts | 73° |
| 2026-04-21 19:05 | 29.57036 | 35.63770 | 32983 ft | 555 kts | 73° |
| 2026-04-21 19:05 | 29.59047 | 35.72322 | 32983 ft | 554 kts | 73° |
| 2026-04-21 19:06 | 29.61053 | 35.80864 | 32981 ft | 554 kts | 74° |
| 2026-04-21 19:06 | 29.62666 | 35.89513 | 32983 ft | 554 kts | 79° |
| 2026-04-21 19:07 | 29.63939 | 35.98255 | 32984 ft | 554 kts | 79° |
| 2026-04-21 19:07 | 29.65359 | 36.07026 | 32978 ft | 555 kts | 78° |
| 2026-04-21 19:08 | 29.66769 | 36.15683 | 32978 ft | 554 kts | 79° |
| 2026-04-21 19:08 | 29.68172 | 36.24452 | 32977 ft | 554 kts | 79° |
| 2026-04-21 19:09 | 29.69566 | 36.33178 | 32977 ft | 554 kts | 79° |
| 2026-04-21 19:09 | 29.70978 | 36.41891 | 32983 ft | 554 kts | 78° |
| 2026-04-21 19:10 | 29.72402 | 36.50613 | 32989 ft | 555 kts | 79° |
| 2026-04-21 19:10 | 29.73803 | 36.59353 | 33002 ft | 555 kts | 79° |
| 2026-04-21 19:11 | 29.74767 | 36.68162 | 33014 ft | 556 kts | 89° |
| 2026-04-21 19:11 | 29.73969 | 36.76985 | 33018 ft | 555 kts | 104° |
| 2026-04-21 19:12 | 29.72379 | 36.84123 | 32998 ft | 554 kts | 108° |
| 2026-04-21 19:12 | 29.70122 | 36.94136 | 32989 ft | 553 kts | 107° |
| 2026-04-21 19:13 | 29.68360 | 37.02739 | 32989 ft | 553 kts | 106° |
| 2026-04-21 19:13 | 29.66635 | 37.11377 | 32991 ft | 554 kts | 105° |
| 2026-04-21 19:14 | 29.64921 | 37.20013 | 32990 ft | 554 kts | 106° |
| 2026-04-21 19:14 | 29.63181 | 37.28641 | 32993 ft | 554 kts | 106° |
| 2026-04-21 19:15 | 29.61434 | 37.37252 | 33002 ft | 554 kts | 106° |
| 2026-04-21 19:15 | 29.59678 | 37.45869 | 33001 ft | 554 kts | 106° |
| 2026-04-21 19:16 | 29.57929 | 37.54425 | 33002 ft | 554 kts | 106° |
| 2026-04-21 19:16 | 29.56164 | 37.63029 | 33002 ft | 553 kts | 106° |
| 2026-04-21 19:17 | 29.53533 | 37.75917 | 33006 ft | 553 kts | 106° |
| 2026-04-21 19:17 | 29.51744 | 37.84505 | 33017 ft | 553 kts | 106° |
| 2026-04-21 19:18 | 29.49954 | 37.93084 | 33018 ft | 553 kts | 106° |
| 2026-04-21 19:18 | 29.48167 | 38.01671 | 33020 ft | 553 kts | 105° |
| 2026-04-21 19:19 | 29.46624 | 38.10326 | 33021 ft | 554 kts | 103° |
| 2026-04-21 19:19 | 29.45131 | 38.19003 | 33034 ft | 554 kts | 104° |
| 2026-04-21 19:20 | 29.43586 | 38.27667 | 33036 ft | 555 kts | 104° |
| 2026-04-21 19:20 | 29.42025 | 38.36341 | 33039 ft | 555 kts | 104° |
| 2026-04-21 19:21 | 29.40494 | 38.45025 | 33042 ft | 556 kts | 104° |
| 2026-04-21 19:21 | 29.38941 | 38.53703 | 33043 ft | 556 kts | 104° |
| 2026-04-21 19:22 | 29.37396 | 38.62402 | 33047 ft | 557 kts | 104° |
| 2026-04-21 19:22 | 29.36079 | 38.69622 | 33048 ft | 557 kts | 104° |
| 2026-04-21 19:23 | 29.34483 | 38.78312 | 33051 ft | 557 kts | 105° |
| 2026-04-21 19:23 | 29.32885 | 38.86999 | 33053 ft | 558 kts | 105° |
| 2026-04-21 19:24 | 29.31232 | 38.95684 | 33055 ft | 558 kts | 106° |
| 2026-04-21 19:24 | 29.29370 | 39.04316 | 33058 ft | 558 kts | 107° |
| 2026-04-21 19:25 | 29.27523 | 39.12949 | 33060 ft | 558 kts | 107° |
| 2026-04-21 19:25 | 29.25687 | 39.21592 | 33062 ft | 558 kts | 107° |
| 2026-04-21 19:26 | 29.23858 | 39.30231 | 33064 ft | 559 kts | 107° |
| 2026-04-21 19:26 | 29.22057 | 39.38896 | 33065 ft | 559 kts | 107° |
| 2026-04-21 19:27 | 29.20228 | 39.47542 | 33068 ft | 559 kts | 107° |
| 2026-04-21 19:27 | 29.18389 | 39.56196 | 33069 ft | 560 kts | 107° |
| 2026-04-21 19:28 | 29.16561 | 39.64852 | 33067 ft | 560 kts | 107° |
| 2026-04-21 19:28 | 29.14693 | 39.73508 | 33068 ft | 560 kts | 107° |
| 2026-04-21 19:29 | 29.12824 | 39.82143 | 33069 ft | 560 kts | 107° |
| 2026-04-21 19:29 | 29.11360 | 39.90890 | 33071 ft | 562 kts | 97° |
| 2026-04-21 19:30 | 29.11184 | 39.99830 | 33072 ft | 564 kts | 90° |
| 2026-04-21 19:30 | 29.11566 | 40.08816 | 33071 ft | 566 kts | 88° |
| 2026-04-21 19:31 | 29.11915 | 40.17819 | 33065 ft | 567 kts | 89° |
| 2026-04-21 19:31 | 29.12268 | 40.26814 | 33066 ft | 566 kts | 88° |
| 2026-04-21 19:32 | 29.12582 | 40.35815 | 33064 ft | 566 kts | 89° |
| 2026-04-21 19:32 | 29.12868 | 40.44819 | 33063 ft | 566 kts | 89° |
| 2026-04-21 19:33 | 29.13153 | 40.53815 | 33061 ft | 566 kts | 89° |
| 2026-04-21 19:33 | 29.13223 | 40.62823 | 33059 ft | 566 kts | 94° |
| 2026-04-21 19:34 | 29.12695 | 40.71737 | 33057 ft | 565 kts | 97° |
| 2026-04-21 19:34 | 29.12101 | 40.80754 | 33054 ft | 565 kts | 96° |
| 2026-04-21 19:35 | 29.11370 | 40.94152 | 33050 ft | 565 kts | 95° |
| 2026-04-21 19:36 | 29.10917 | 41.03120 | 33048 ft | 565 kts | 95° |
| 2026-04-21 19:36 | 29.10475 | 41.12093 | 33046 ft | 565 kts | 95° |
| 2026-04-21 19:37 | 29.09986 | 41.21068 | 33036 ft | 565 kts | 95° |
| 2026-04-21 19:37 | 29.09480 | 41.30043 | 33032 ft | 565 kts | 96° |
| 2026-04-21 19:38 | 29.08972 | 41.39009 | 33027 ft | 566 kts | 96° |
| 2026-04-21 19:38 | 29.08464 | 41.47989 | 33024 ft | 566 kts | 96° |
| 2026-04-21 19:39 | 29.07948 | 41.56979 | 33020 ft | 566 kts | 96° |
| 2026-04-21 19:39 | 29.07468 | 41.65957 | 33015 ft | 566 kts | 96° |
| 2026-04-21 19:40 | 29.06941 | 41.74938 | 33009 ft | 566 kts | 96° |
| 2026-04-21 19:40 | 29.06405 | 41.83901 | 33005 ft | 565 kts | 96° |
| 2026-04-21 19:41 | 29.05868 | 41.92874 | 33000 ft | 566 kts | 96° |
| 2026-04-21 19:41 | 29.05338 | 42.01852 | 32995 ft | 566 kts | 96° |
| 2026-04-21 19:42 | 29.04785 | 42.10829 | 32974 ft | 565 kts | 96° |
| 2026-04-21 19:42 | 29.04227 | 42.19792 | 32969 ft | 565 kts | 96° |
| 2026-04-21 19:43 | 29.03659 | 42.28750 | 32967 ft | 565 kts | 96° |
| 2026-04-21 19:43 | 29.03081 | 42.37706 | 32965 ft | 565 kts | 96° |
| 2026-04-21 19:44 | 29.02497 | 42.46664 | 32962 ft | 565 kts | 96° |
| 2026-04-21 19:44 | 29.01906 | 42.55629 | 32960 ft | 565 kts | 96° |
| 2026-04-21 19:45 | 29.01349 | 42.64584 | 32958 ft | 565 kts | 96° |
| 2026-04-21 19:45 | 29.00778 | 42.73551 | 32955 ft | 565 kts | 96° |
| 2026-04-21 19:46 | 29.00187 | 42.82504 | 32953 ft | 565 kts | 96° |
| 2026-04-21 19:46 | 28.99588 | 42.91453 | 32951 ft | 565 kts | 96° |
| 2026-04-21 19:47 | 28.98984 | 43.00406 | 32949 ft | 565 kts | 96° |
| 2026-04-21 19:47 | 28.98372 | 43.09353 | 32949 ft | 565 kts | 96° |
| 2026-04-21 19:48 | 28.97764 | 43.18311 | 32946 ft | 565 kts | 96° |
| 2026-04-21 19:48 | 28.97156 | 43.27252 | 32946 ft | 565 kts | 97° |
| 2026-04-21 19:49 | 28.96516 | 43.36187 | 32945 ft | 564 kts | 97° |
| 2026-04-21 19:49 | 28.95872 | 43.45110 | 32944 ft | 564 kts | 97° |
| 2026-04-21 19:50 | 28.95333 | 43.52586 | 32942 ft | 564 kts | 97° |
| 2026-04-21 19:50 | 28.94572 | 43.62956 | 32942 ft | 564 kts | 97° |
| 2026-04-21 19:51 | 28.93907 | 43.71876 | 32942 ft | 564 kts | 97° |
| 2026-04-21 19:51 | 28.93236 | 43.80792 | 32943 ft | 564 kts | 97° |
| 2026-04-21 19:52 | 28.92559 | 43.89716 | 32936 ft | 564 kts | 97° |
| 2026-04-21 19:52 | 28.91917 | 43.98633 | 32937 ft | 564 kts | 97° |
| 2026-04-21 19:53 | 28.91257 | 44.07550 | 32937 ft | 563 kts | 97° |
| 2026-04-21 19:53 | 28.90581 | 44.16445 | 32936 ft | 563 kts | 97° |
| 2026-04-21 19:54 | 28.89895 | 44.25348 | 32937 ft | 563 kts | 97° |
| 2026-04-21 19:54 | 28.89204 | 44.34244 | 32937 ft | 563 kts | 97° |
| 2026-04-21 19:55 | 28.88529 | 44.43144 | 32933 ft | 563 kts | 97° |
| 2026-04-21 19:55 | 28.87826 | 44.52042 | 32928 ft | 563 kts | 97° |
| 2026-04-21 19:56 | 28.87105 | 44.60937 | 32927 ft | 563 kts | 97° |
| 2026-04-21 19:56 | 28.86382 | 44.69825 | 32927 ft | 563 kts | 97° |
| 2026-04-21 19:57 | 28.85685 | 44.78718 | 32926 ft | 563 kts | 96° |
| 2026-04-21 19:57 | 28.85142 | 44.87635 | 32925 ft | 563 kts | 96° |
| 2026-04-21 19:58 | 28.84577 | 44.96534 | 32926 ft | 562 kts | 96° |
| 2026-04-21 19:58 | 28.83995 | 45.05425 | 32926 ft | 562 kts | 96° |
| 2026-04-21 19:59 | 28.83407 | 45.14318 | 32925 ft | 562 kts | 96° |
| 2026-04-21 19:59 | 28.82855 | 45.23219 | 32925 ft | 563 kts | 96° |
| 2026-04-21 20:00 | 28.82272 | 45.32120 | 32926 ft | 563 kts | 96° |
| 2026-04-21 20:00 | 28.81705 | 45.41011 | 32927 ft | 562 kts | 96° |
| 2026-04-21 20:01 | 28.81092 | 45.49897 | 32926 ft | 562 kts | 97° |
| 2026-04-21 20:01 | 28.80473 | 45.58773 | 32926 ft | 562 kts | 96° |
| 2026-04-21 20:02 | 28.79958 | 45.66152 | 32926 ft | 562 kts | 96° |
| 2026-04-21 20:02 | 28.79237 | 45.76480 | 32927 ft | 562 kts | 96° |
| 2026-04-21 20:03 | 28.78609 | 45.85359 | 32928 ft | 562 kts | 96° |
| 2026-04-21 20:03 | 28.77975 | 45.94239 | 32928 ft | 562 kts | 96° |
| 2026-04-21 20:04 | 28.77475 | 46.01678 | 32928 ft | 562 kts | 96° |
| 2026-04-21 20:04 | 28.76753 | 46.11982 | 32928 ft | 560 kts | 97° |
| 2026-04-21 20:05 | 28.76103 | 46.20823 | 32616 ft | 560 kts | 97° |
| 2026-04-21 20:05 | 28.75776 | 46.25243 | 31902 ft | 560 kts | 97° |
| 2026-04-21 20:05 | 28.75452 | 46.29662 | 31274 ft | 559 kts | 97° |
| 2026-04-21 20:05 | 28.75125 | 46.34068 | 30659 ft | 558 kts | 97° |
| 2026-04-21 20:06 | 28.74788 | 46.38463 | 30033 ft | 557 kts | 97° |
| 2026-04-21 20:06 | 28.74561 | 46.41372 | 29676 ft | 554 kts | 97° |
| 2026-04-21 20:06 | 28.74215 | 46.45790 | 29122 ft | 551 kts | 97° |
| 2026-04-21 20:06 | 28.73879 | 46.50073 | 28591 ft | 548 kts | 97° |
| 2026-04-21 20:07 | 28.73555 | 46.54445 | 28048 ft | 545 kts | 96° |
| 2026-04-21 20:07 | 28.73244 | 46.58680 | 27524 ft | 542 kts | 97° |
| 2026-04-21 20:07 | 28.72912 | 46.62942 | 26997 ft | 538 kts | 97° |
| 2026-04-21 20:07 | 28.72576 | 46.67166 | 26474 ft | 534 kts | 97° |
| 2026-04-21 20:08 | 28.72238 | 46.71372 | 25954 ft | 531 kts | 97° |
| 2026-04-21 20:08 | 28.71906 | 46.75542 | 25442 ft | 527 kts | 98° |
| 2026-04-21 20:08 | 28.71569 | 46.79683 | 24972 ft | 522 kts | 98° |
| 2026-04-21 20:08 | 28.71239 | 46.83783 | 24420 ft | 519 kts | 98° |
| 2026-04-21 20:09 | 28.70912 | 46.87852 | 24045 ft | 512 kts | 98° |
| 2026-04-21 20:09 | 28.70593 | 46.91878 | 23457 ft | 510 kts | 98° |
| 2026-04-21 20:09 | 28.70270 | 46.95904 | 22814 ft | 510 kts | 98° |
| 2026-04-21 20:09 | 28.69952 | 46.99889 | 22501 ft | 502 kts | 98° |
| 2026-04-21 20:10 | 28.69631 | 47.03836 | 21953 ft | 499 kts | 98° |
| 2026-04-21 20:10 | 28.69313 | 47.07748 | 21551 ft | 493 kts | 98° |
| 2026-04-21 20:10 | 28.68999 | 47.11604 | 21195 ft | 486 kts | 98° |
| 2026-04-21 20:10 | 28.68687 | 47.15457 | 20701 ft | 475 kts | 98° |
| 2026-04-21 20:11 | 28.68386 | 47.19118 | 19935 ft | 456 kts | 98° |
| 2026-04-21 20:11 | 28.68092 | 47.22699 | 19265 ft | 455 kts | 98° |
| 2026-04-21 20:11 | 28.67805 | 47.26289 | 18777 ft | 457 kts | 98° |
| 2026-04-21 20:11 | 28.67542 | 47.29920 | 18329 ft | 464 kts | 98° |
| 2026-04-21 20:12 | 28.67263 | 47.33578 | 17845 ft | 462 kts | 98° |
| 2026-04-21 20:12 | 28.66970 | 47.37184 | 17360 ft | 453 kts | 98° |
| 2026-04-21 20:12 | 28.66676 | 47.40691 | 17193 ft | 435 kts | 98° |
| 2026-04-21 20:12 | 28.66397 | 47.44007 | 16831 ft | 409 kts | 98° |
| 2026-04-21 20:13 | 28.66134 | 47.47139 | 16427 ft | 387 kts | 98° |
| 2026-04-21 20:13 | 28.65881 | 47.50128 | 15923 ft | 371 kts | 98° |
| 2026-04-21 20:13 | 28.65637 | 47.53014 | 15422 ft | 362 kts | 98° |
| 2026-04-21 20:13 | 28.65396 | 47.55846 | 14942 ft | 366 kts | 99° |
| 2026-04-21 20:14 | 28.64830 | 47.58652 | 14696 ft | 352 kts | 117° |
| 2026-04-21 20:14 | 28.63536 | 47.60916 | 14522 ft | 334 kts | 138° |
| 2026-04-21 20:14 | 28.61840 | 47.62599 | 14314 ft | 323 kts | 145° |
| 2026-04-21 20:14 | 28.60114 | 47.64244 | 13949 ft | 324 kts | 147° |
| 2026-04-21 20:15 | 28.58446 | 47.65981 | 13708 ft | 329 kts | 134° |
| 2026-04-21 20:15 | 28.57373 | 47.68295 | 13563 ft | 336 kts | 111° |
| 2026-04-21 20:15 | 28.57003 | 47.70912 | 13458 ft | 336 kts | 96° |
| 2026-04-21 20:15 | 28.57027 | 47.73573 | 13344 ft | 337 kts | 91° |
| 2026-04-21 20:16 | 28.57147 | 47.76243 | 13221 ft | 338 kts | 89° |
| 2026-04-21 20:16 | 28.57316 | 47.78909 | 13094 ft | 337 kts | 87° |
| 2026-04-21 20:16 | 28.57481 | 47.81560 | 12974 ft | 335 kts | 88° |
| 2026-04-21 20:16 | 28.57590 | 47.84191 | 12709 ft | 332 kts | 90° |
| 2026-04-21 20:17 | 28.57650 | 47.86814 | 12382 ft | 330 kts | 90° |
| 2026-04-21 20:17 | 28.57691 | 47.89420 | 12058 ft | 329 kts | 90° |
| 2026-04-21 20:17 | 28.57741 | 47.92011 | 11741 ft | 327 kts | 90° |
| 2026-04-21 20:17 | 28.57797 | 47.94595 | 11408 ft | 325 kts | 89° |
| 2026-04-21 20:18 | 28.57959 | 47.96281 | 11192 ft | 325 kts | 80° |
| 2026-04-21 20:18 | 28.59033 | 47.99471 | 10776 ft | 323 kts | 63° |
| 2026-04-21 20:18 | 28.60161 | 48.01690 | 10408 ft | 324 kts | 58° |
| 2026-04-21 20:18 | 28.61407 | 48.03819 | 10120 ft | 321 kts | 54° |
| 2026-04-21 20:19 | 28.62718 | 48.05831 | 10030 ft | 312 kts | 52° |
| 2026-04-21 20:19 | 28.64035 | 48.07758 | 9842 ft | 306 kts | 52° |
| 2026-04-21 20:19 | 28.65331 | 48.09671 | 9535 ft | 305 kts | 52° |
| 2026-04-21 20:19 | 28.66612 | 48.11593 | 9223 ft | 304 kts | 53° |
| 2026-04-21 20:20 | 28.67979 | 48.13413 | 8919 ft | 300 kts | 40° |
| 2026-04-21 20:20 | 28.69730 | 48.14594 | 8807 ft | 286 kts | 20° |
| 2026-04-21 20:20 | 28.71625 | 48.15062 | 8669 ft | 275 kts | 4° |
| 2026-04-21 20:20 | 28.73531 | 48.15097 | 8304 ft | 275 kts | 356° |
| 2026-04-21 20:21 | 28.75447 | 48.14940 | 7913 ft | 276 kts | 352° |
| 2026-04-21 20:21 | 28.77346 | 48.14670 | 7582 ft | 274 kts | 349° |
| 2026-04-21 20:21 | 28.79226 | 48.14345 | 7261 ft | 272 kts | 348° |
| 2026-04-21 20:21 | 28.81087 | 48.14032 | 6966 ft | 270 kts | 349° |
| 2026-04-21 20:22 | 28.82946 | 48.13867 | 6670 ft | 268 kts | 359° |
| 2026-04-21 20:22 | 28.86615 | 48.13994 | 6111 ft | 260 kts | 354° |
| 2026-04-21 20:22 | 28.88398 | 48.13764 | 5871 ft | 254 kts | 348° |
| 2026-04-21 20:23 | 28.90090 | 48.13298 | 5640 ft | 248 kts | 342° |
| 2026-04-21 20:23 | 28.91721 | 48.12690 | 5328 ft | 247 kts | 339° |
| 2026-04-21 20:23 | 28.93164 | 48.12138 | 5062 ft | 248 kts | 339° |
| 2026-04-21 20:23 | 28.94787 | 48.11475 | 4784 ft | 247 kts | 338° |
| 2026-04-21 20:24 | 28.96355 | 48.10758 | 4658 ft | 238 kts | 336° |
| 2026-04-21 20:24 | 28.97841 | 48.10015 | 4550 ft | 229 kts | 335° |
| 2026-04-21 20:24 | 28.99290 | 48.09262 | 4248 ft | 231 kts | 334° |
| 2026-04-21 20:24 | 29.00763 | 48.08488 | 3884 ft | 234 kts | 334° |
| 2026-04-21 20:25 | 29.02238 | 48.07711 | 3636 ft | 232 kts | 335° |
| 2026-04-21 20:25 | 29.03699 | 48.06940 | 3387 ft | 231 kts | 335° |
| 2026-04-21 20:25 | 29.05148 | 48.06173 | 3144 ft | 228 kts | 335° |
| 2026-04-21 20:25 | 29.06558 | 48.05427 | 2983 ft | 217 kts | 335° |
| 2026-04-21 20:26 | 29.07863 | 48.04737 | 2871 ft | 195 kts | 335° |
| 2026-04-21 20:26 | 29.09022 | 48.04123 | 2686 ft | 174 kts | 335° |
| 2026-04-21 20:26 | 29.10069 | 48.03568 | 2538 ft | 159 kts | 336° |
| 2026-04-21 20:26 | 29.11058 | 48.03044 | 2395 ft | 159 kts | 336° |
| 2026-04-21 20:27 | 29.12073 | 48.02506 | 2187 ft | 162 kts | 336° |
| 2026-04-21 20:27 | 29.13096 | 48.01964 | 1964 ft | 162 kts | 336° |
| 2026-04-21 20:27 | 29.14112 | 48.01425 | 1746 ft | 160 kts | 336° |
| 2026-04-21 20:27 | 29.15123 | 48.00889 | 1531 ft | 159 kts | 336° |
| 2026-04-21 20:28 | 29.16123 | 48.00359 | 1321 ft | 158 kts | 337° |
| 2026-04-21 20:28 | 29.17117 | 47.99831 | 1108 ft | 157 kts | 337° |
| 2026-04-21 20:28 | 29.18108 | 47.99306 | 895 ft | 158 kts | 337° |
| 2026-04-21 20:28 | 29.19099 | 47.98772 | 697 ft | 157 kts | 337° |
| 2026-04-21 20:29 | 29.20099 | 47.98250 | 430 ft | 158 kts | 338° |
| 2026-04-21 20:29 | 29.21084 | 47.97724 | 310 ft | 156 kts | 337° |
| 2026-04-21 20:29 | 29.22033 | 47.97216 | 220 ft | 138 kts | 339° |
| 2026-04-21 20:29 | 29.22746 | 47.96837 | 220 ft | 89 kts | 338° |
| 2026-04-21 20:30 | 29.23141 | 47.96637 | 219 ft | 27 kts | 335° |
| 2026-04-21 20:30 | 29.23294 | 47.96589 | 220 ft | 22 kts | 9° |
| 2026-04-21 20:30 | 29.23434 | 47.96635 | 220 ft | 20 kts | 19° |
| 2026-04-21 20:30 | 29.23562 | 47.96656 | 219 ft | 19 kts | 338° |
| 2026-04-21 20:31 | 29.23607 | 47.96632 | 219 ft | 2 kts | 334° |
| 2026-04-21 20:31 | 29.23618 | 47.96626 | 219 ft | 2 kts | 334° |
| 2026-04-21 20:31 | 29.23624 | 47.96622 | 219 ft | 0 kts | 334° |
| 2026-04-21 20:33 | 29.23652 | 47.96623 | 219 ft | 5 kts | 34° |
| 2026-04-21 20:33 | 29.23668 | 47.96662 | 219 ft | 5 kts | 66° |
| 2026-04-21 20:34 | 29.23682 | 47.96700 | 219 ft | 5 kts | 66° |
| 2026-04-21 20:34 | 29.23697 | 47.96736 | 219 ft | 5 kts | 65° |
| 2026-04-21 20:34 | 29.23711 | 47.96771 | 219 ft | 5 kts | 65° |
| 2026-04-21 20:34 | 29.23725 | 47.96805 | 219 ft | 5 kts | 65° |
| 2026-04-21 20:35 | 29.23738 | 47.96837 | 219 ft | 4 kts | 65° |
| 2026-04-21 20:35 | 29.23751 | 47.96868 | 219 ft | 4 kts | 65° |
| 2026-04-21 20:35 | 29.23764 | 47.96900 | 219 ft | 5 kts | 65° |
| 2026-04-21 20:35 | 29.23777 | 47.96932 | 219 ft | 4 kts | 65° |
| 2026-04-21 20:36 | 29.23789 | 47.96962 | 219 ft | 4 kts | 65° |
| 2026-04-21 20:36 | 29.23805 | 47.96988 | 219 ft | 4 kts | 37° |
| 2026-04-21 20:36 | 29.23828 | 47.97004 | 219 ft | 4 kts | 41° |
| 2026-04-21 20:36 | 29.23846 | 47.97023 | 219 ft | 3 kts | 25° |
| 2026-04-21 20:37 | 29.23868 | 47.97021 | 219 ft | 2 kts | 338° |
| 2026-04-21 20:37 | 29.23882 | 47.97017 | 219 ft | 2 kts | 350° |
| 2026-04-21 20:37 | 29.23894 | 47.97017 | 219 ft | 2 kts | 8° |
| 2026-04-21 20:37 | 29.23901 | 47.97019 | 219 ft | 0 kts | 13° |